Las Cruces International Airport
KLRU : now visible

Airfield :











YOU CAN JOIN US ON...

 
LOGIN :

Register | Disclaimer

   EN    FR    IT 

 









Legend :    VFR   Marginal VFR   IFR   Intensive IFR   Very Intensive IFR
Visi :
Ceiling :
>= 8 km
>= 3000ft
5 to 8 km
1000 to 3000 ft
1500m to 5 km
500 to 1000 ft
800 to 1500m
200 to 500 ft
< 800m
< 200 ft
Symbols :   Thunderstorms  Fog  Heavy snow  Heavy precipitations  Wind > 20 kt







- Airport Elevation : 4456 ft
- IATA code : LRU


KLRU - Las Cruces International

CURRENT METAR :
  • 191355Z AUTO 25009KT 10SM CLR 25/14 A3003 RMK AO2 T02450136

EXPIRED METARs :
  • 191335Z AUTO 24007KT 10SM CLR 24/14 A3003 RMK AO2 T02360137
  • 191315Z AUTO 24007KT 10SM CLR 23/14 A3003 RMK AO2 T02270137
  • 191255Z AUTO 26008KT 10SM CLR 23/14 A3002 RMK AO2 T02270137
  • 191235Z AUTO 26009KT 10SM CLR 23/13 A3002 RMK AO2 T02300134
  • 191215Z AUTO 27008KT 10SM CLR 23/13 A3002 RMK AO2 T02280134
  • 191155Z AUTO 27007KT 10SM CLR 23/13 A3002 RMK AO2 T02330132 10280 20233
  • 191135Z AUTO 28009KT 10SM CLR 24/13 A3001 RMK AO2 T02350131
  • 191115Z AUTO 28012G16KT 10SM CLR 24/13 A3000 RMK AO2 T02400132

TAF KLRU
Valid from the 19 at 12:00 until the 20 at 12:00 UTC


191144Z 1912/2012 27006KT P6SM SCT120 BKN250
FM192200 18013G18KT P6SM VCTS SCT100 BKN250CB
FM200100 27006KT P6SM BKN250
KZAB FIR / North America



MET'MAP, your aeronautical weather chart ! - Copyright ORBIFLY December 2007 - Disclaimer

ORBIFLY MET'MAP TEAM :

Programming & Development : Alexandra Zaïnal
Concept & Development : Baudouin d'Aumeries
Co-Development & Prog : Marc-Olivier Méhu
Technical & hardware support : Manuel Goepfert

Contact : metmap@orbifly.com




SOURCES & CREDITS :

   NOAA       Earth
Advisory